Freysville, Pennsylvania
Current Conditions -  °F | °C
As of 7:53 AM on Thursday 23 Oct 2014 (Local Time) from KTHV Reporting Station
Overcast Overcast  
Wind Chill: 52°   Ceiling: 3300
Heat Index: 52°   Visibility: 10mi
Dew Point: 42°   Wind: 14mph
Humidity: 69%   Direction: 310°NW
Pressure: 29.88"   Gusts: 21mph
Location:  39.8974°N, 76.608°W
Report Text: KTHV 231153Z AUTO 31012G18KT 10SM OVC033 11/06 A2988 RMK AO2 SLP119 60000 70006 T01110056 10111 20106 50002
Loading
Personal Weather Stations






























Interactive Weather Map
Tropical Storm Tracking
New forecast layout! Learn more

10-Day Weather Forecast

Advertisements
Track Severe Weather on mobile